Hesperides — EANN — position and weather

sailwx.info

Track history (hours):
 
Tides and Currents Weather Stations Pressure Air Temp Water Temp Dewpoint Dewpoint Depression Visibility Wind Speed Wind Dir Waves Ship Positions

Hesperides

Last reported at 2016-Jul-01 02:33 UTC. Time now 2016-Jul-01 19:02 UTC.
Position N 28°29' W 016°13'.

Length 122 m; draft 5.8 m.

Type: Tanker. MMSI: 224462000.

Date/timePositionNaut miles runAvg speedWind from/ knotsBaromVisibWave heightAir tempDewpointWater temp
2016-Jul-01 02:33N 28°29' W 016°13'4 4.1
2016-Jul-01 01:33N 28°28' W 016°09'8 8.6
2016-Jul-01 00:33N 28°25' W 015°60'9 8.8
2016-Jun-30 23:33N 28°19' W 015°52'10 9.9
2016-Jun-30 22:33N 28°23' W 015°42'9 8.5
2016-Jun-30 21:33N 28°19' W 015°34'9 9.2
2016-Jun-30 20:33N 28°14' W 015°25'8 8.3
2016-Jun-30 19:33N 28°06' W 015°20'8 7.8
2016-Jun-30 18:34N 27°59' W 015°21'2 1.7
2016-Jun-30 17:33N 27°59' W 015°23'0 0.0
2016-Jun-30 16:33N 27°59' W 015°23'0 0.0
2016-Jun-30 15:33N 27°59' W 015°23'0 0.0
2016-Jun-30 14:33N 27°59' W 015°23'0 0.0
2016-Jun-30 13:33N 27°59' W 015°23'0 0.0
2016-Jun-30 12:33N 27°59' W 015°23'0 0.0
2016-Jun-30 11:33N 27°59' W 015°23'0 0.0
2016-Jun-30 10:33N 27°59' W 015°23'0 0.0
2016-Jun-30 09:33N 27°59' W 015°23'0 0.0
2016-Jun-29 22:04N 27°59' W 015°23'2 4.0
2016-Jun-29 21:34N 27°58' W 015°20'8 7.6
2016-Jun-29 20:33N 28°06' W 015°20'9 8.9
2016-Jun-29 19:33N 28°14' W 015°25'9 8.9
2016-Jun-29 18:34N 28°18' W 015°34'9 8.6
2016-Jun-29 17:34N 28°21' W 015°43'9 8.8
2016-Jun-29 16:33N 28°23' W 015°53'9 8.7
2016-Jun-29 15:33N 28°25' W 016°03'9 8.7
2016-Jun-29 14:33N 28°28' W 016°12'2 1.7
2016-Jun-29 13:33N 28°29' W 016°13'0 0.0
2016-Jun-29 12:33N 28°29' W 016°13'0 0.0
2016-Jun-29 11:31N 28°29' W 016°13'0 0.0
2016-Jun-29 10:33N 28°29' W 016°13'0 0.0
2016-Jun-28 17:32N 28°29' W 016°14'1 0.0
2016-Jun-27 17:08N 28°29' W 016°14'2 3.3
2016-Jun-27 16:33N 28°28' W 016°12'10 9.6
2016-Jun-27 15:33N 28°25' W 016°02'10 9.7
2016-Jun-27 14:33N 28°22' W 015°51'1010.3
2016-Jun-27 13:33N 28°19' W 015°40'1010.2
2016-Jun-27 12:33N 28°15' W 015°30'9 8.9
2016-Jun-27 11:33N 28°09' W 015°22'9 9.0
2016-Jun-27 10:33N 28°01' W 015°20'3 3.3
2016-Jun-27 09:33N 27°59' W 015°23'81 2.8
2016-Jun-26 04:32N 28°13' W 013°52'10 9.9
2016-Jun-26 03:32N 28°22' W 013°48'10 9.8
2016-Jun-26 02:30N 28°32' W 013°44'9 9.6
2016-Jun-26 01:33N 28°40' W 013°40'10 9.6
2016-Jun-26 00:33N 28°48' W 013°35'9 9.4
2016-Jun-25 23:33N 28°57' W 013°32'1 0.6
2016-Jun-25 22:33N 28°58' W 013°32'0 0.0
2016-Jun-25 10:33N 28°58' W 013°32'2 1.8
2016-Jun-25 09:33N 28°56' W 013°32'8 8.3
2016-Jun-25 08:33N 28°52' W 013°41'11 9.2
2016-Jun-25 07:24N 28°48' W 013°52'8 8.3
2016-Jun-25 06:29N 28°48' W 014°00'24 8.1
2016-Jun-25 03:33N 28°45' W 014°27'94 2.1
2016-Jun-23 07:34N 28°29' W 016°13'0 0.0
2016-Jun-22 16:15N 28°29' W 016°13'2 2.5
2016-Jun-22 15:31N 28°28' W 016°12'9 9.8
2016-Jun-22 14:33N 28°25' W 016°02'10 9.7
2016-Jun-22 13:33N 28°21' W 015°51'1010.1
2016-Jun-22 12:33N 28°20' W 015°40'1010.1
2016-Jun-22 11:33N 28°19' W 015°29'9 9.3
2016-Jun-22 10:33N 28°17' W 015°18'9 9.3
2016-Jun-22 09:33N 28°11' W 015°10'1010.1
2016-Jun-22 08:33N 28°07' W 014°60'1010.1
2016-Jun-22 07:33N 28°04' W 014°49'1010.2
2016-Jun-22 06:33N 28°01' W 014°38'1010.4
2016-Jun-22 05:33N 27°60' W 014°26'1010.3
2016-Jun-22 04:33N 28°02' W 014°15'1010.1
2016-Jun-22 03:33N 28°07' W 014°05'10 9.9
2016-Jun-22 02:33N 28°12' W 013°55'1310.0
2016-Jun-22 01:18N 28°23' W 013°49'7 0.3
2016-Jun-21 04:11N 28°30' W 013°51'2 3.2
2016-Jun-21 03:30N 28°28' W 013°49'  
Track history (hours):
 
Tides and Currents Weather Stations Pressure Air Temp Water Temp Dewpoint Dewpoint Depression Visibility Wind Speed Wind Dir Waves Ship Positions

Hesperides

Last reported at 2016-Jul-01 02:33 UTC. Time now 2016-Jul-01 19:02 UTC.
Position N 28°29' W 016°13'.

Length 122 m; draft 5.8 m.

Type: Tanker. MMSI: 224462000.

Date/timePositionNaut miles runAvg speedWind from/ knotsBaromVisibWave heightAir tempDewpointWater temp
2016-Jul-01 02:33N 28°29' W 016°13'4 4.1
2016-Jul-01 01:33N 28°28' W 016°09'8 8.6
2016-Jul-01 00:33N 28°25' W 015°60'9 8.8
2016-Jun-30 23:33N 28°19' W 015°52'10 9.9
2016-Jun-30 22:33N 28°23' W 015°42'9 8.5
2016-Jun-30 21:33N 28°19' W 015°34'9 9.2
2016-Jun-30 20:33N 28°14' W 015°25'8 8.3
2016-Jun-30 19:33N 28°06' W 015°20'8 7.8
2016-Jun-30 18:34N 27°59' W 015°21'2 1.7
2016-Jun-30 17:33N 27°59' W 015°23'0 0.0
2016-Jun-30 16:33N 27°59' W 015°23'0 0.0
2016-Jun-30 15:33N 27°59' W 015°23'0 0.0
2016-Jun-30 14:33N 27°59' W 015°23'0 0.0
2016-Jun-30 13:33N 27°59' W 015°23'0 0.0
2016-Jun-30 12:33N 27°59' W 015°23'0 0.0
2016-Jun-30 11:33N 27°59' W 015°23'0 0.0
2016-Jun-30 10:33N 27°59' W 015°23'0 0.0
2016-Jun-30 09:33N 27°59' W 015°23'0 0.0
2016-Jun-29 22:04N 27°59' W 015°23'2 4.0
2016-Jun-29 21:34N 27°58' W 015°20'8 7.6
2016-Jun-29 20:33N 28°06' W 015°20'9 8.9
2016-Jun-29 19:33N 28°14' W 015°25'9 8.9
2016-Jun-29 18:34N 28°18' W 015°34'9 8.6
2016-Jun-29 17:34N 28°21' W 015°43'9 8.8
2016-Jun-29 16:33N 28°23' W 015°53'9 8.7
2016-Jun-29 15:33N 28°25' W 016°03'9 8.7
2016-Jun-29 14:33N 28°28' W 016°12'2 1.7
2016-Jun-29 13:33N 28°29' W 016°13'0 0.0
2016-Jun-29 12:33N 28°29' W 016°13'0 0.0
2016-Jun-29 11:31N 28°29' W 016°13'0 0.0
2016-Jun-29 10:33N 28°29' W 016°13'0 0.0
2016-Jun-28 17:32N 28°29' W 016°14'1 0.0
2016-Jun-27 17:08N 28°29' W 016°14'2 3.3
2016-Jun-27 16:33N 28°28' W 016°12'10 9.6
2016-Jun-27 15:33N 28°25' W 016°02'10 9.7
2016-Jun-27 14:33N 28°22' W 015°51'1010.3
2016-Jun-27 13:33N 28°19' W 015°40'1010.2
2016-Jun-27 12:33N 28°15' W 015°30'9 8.9
2016-Jun-27 11:33N 28°09' W 015°22'9 9.0
2016-Jun-27 10:33N 28°01' W 015°20'3 3.3
2016-Jun-27 09:33N 27°59' W 015°23'81 2.8
2016-Jun-26 04:32N 28°13' W 013°52'10 9.9
2016-Jun-26 03:32N 28°22' W 013°48'10 9.8
2016-Jun-26 02:30N 28°32' W 013°44'9 9.6
2016-Jun-26 01:33N 28°40' W 013°40'10 9.6
2016-Jun-26 00:33N 28°48' W 013°35'9 9.4
2016-Jun-25 23:33N 28°57' W 013°32'1 0.6
2016-Jun-25 22:33N 28°58' W 013°32'0 0.0
2016-Jun-25 10:33N 28°58' W 013°32'2 1.8
2016-Jun-25 09:33N 28°56' W 013°32'8 8.3
2016-Jun-25 08:33N 28°52' W 013°41'11 9.2
2016-Jun-25 07:24N 28°48' W 013°52'8 8.3
2016-Jun-25 06:29N 28°48' W 014°00'24 8.1
2016-Jun-25 03:33N 28°45' W 014°27'94 2.1
2016-Jun-23 07:34N 28°29' W 016°13'0 0.0
2016-Jun-22 16:15N 28°29' W 016°13'2 2.5
2016-Jun-22 15:31N 28°28' W 016°12'9 9.8
2016-Jun-22 14:33N 28°25' W 016°02'10 9.7
2016-Jun-22 13:33N 28°21' W 015°51'1010.1
2016-Jun-22 12:33N 28°20' W 015°40'1010.1
2016-Jun-22 11:33N 28°19' W 015°29'9 9.3
2016-Jun-22 10:33N 28°17' W 015°18'9 9.3
2016-Jun-22 09:33N 28°11' W 015°10'1010.1
2016-Jun-22 08:33N 28°07' W 014°60'1010.1
2016-Jun-22 07:33N 28°04' W 014°49'1010.2
2016-Jun-22 06:33N 28°01' W 014°38'1010.4
2016-Jun-22 05:33N 27°60' W 014°26'1010.3
2016-Jun-22 04:33N 28°02' W 014°15'1010.1
2016-Jun-22 03:33N 28°07' W 014°05'10 9.9
2016-Jun-22 02:33N 28°12' W 013°55'1310.0
2016-Jun-22 01:18N 28°23' W 013°49'7 0.3
2016-Jun-21 04:11N 28°30' W 013°51'2 3.2
2016-Jun-21 03:30N 28°28' W 013°49'  

Dump ship's entire track history